createdAt,value
2022-10-20T00:00:35.240Z,64.55
2022-10-20T00:03:04.333Z,67.97
2022-10-20T00:05:33.593Z,63.92
2022-10-20T00:08:03.075Z,61.25
2022-10-20T00:10:32.918Z,63.42
2022-10-20T00:13:02.022Z,57.53
2022-10-20T00:15:31.165Z,58.28
2022-10-20T00:18:00.163Z,58.15
2022-10-20T00:20:29.005Z,59.00
2022-10-20T00:22:58.193Z,58.67
2022-10-20T00:25:27.138Z,59.75
2022-10-20T00:27:56.400Z,57.58
2022-10-20T00:30:25.743Z,58.88
2022-10-20T00:32:55.161Z,62.40
2022-10-20T00:35:24.394Z,62.85
2022-10-20T00:37:54.068Z,62.40
2022-10-20T00:40:23.233Z,60.17
2022-10-20T00:42:52.269Z,63.05
2022-10-20T00:45:23.583Z,65.75
2022-10-20T00:48:00.661Z,63.85
2022-10-20T00:50:34.256Z,64.25
2022-10-20T00:53:04.263Z,66.65
2022-10-20T00:55:36.670Z,65.78
2022-10-20T00:58:06.407Z,64.43
2022-10-20T01:00:35.933Z,62.63
2022-10-20T01:03:08.238Z,63.75
2022-10-20T01:05:39.467Z,60.45
2022-10-20T01:08:11.852Z,62.30
2022-10-20T01:11:03.213Z,57.65
2022-10-20T01:13:58.960Z,60.60
2022-10-20T01:16:31.337Z,62.75
2022-10-20T01:22:09.226Z,60.50
2022-10-20T01:25:20.611Z,60.15
2022-10-20T01:28:13.956Z,58.30
2022-10-20T01:30:51.350Z,57.70
2022-10-20T01:33:51.616Z,57.58
2022-10-20T01:36:27.872Z,60.85
2022-10-20T01:39:01.144Z,59.47
2022-10-20T01:41:39.199Z,62.08
2022-10-20T01:44:13.590Z,62.60
2022-10-20T01:46:46.064Z,66.72
2022-10-20T01:49:16.780Z,65.30
2022-10-20T01:51:46.532Z,62.78
2022-10-20T01:54:28.332Z,62.63
2022-10-20T01:57:30.458Z,60.47
2022-10-20T02:00:13.184Z,62.75
2022-10-20T02:03:03.565Z,63.80
2022-10-20T02:06:26.904Z,59.47
2022-10-20T02:09:25.586Z,57.13
2022-10-20T02:12:22.096Z,57.40
2022-10-20T02:14:57.393Z,56.22
2022-10-20T02:17:27.787Z,59.92
2022-10-20T02:19:58.798Z,57.80
2022-10-20T02:22:28.876Z,59.33
2022-10-20T02:24:58.482Z,60.78
2022-10-20T02:27:36.102Z,63.58
2022-10-20T02:30:10.362Z,65.63
2022-10-20T02:32:43.080Z,66.13
2022-10-20T02:35:17.233Z,70.28
2022-10-20T02:37:47.289Z,67.13
2022-10-20T02:40:16.989Z,65.15
2022-10-20T02:42:46.865Z,63.70
2022-10-20T02:45:16.447Z,74.22
2022-10-20T02:47:46.019Z,80.80
2022-10-20T02:50:15.164Z,65.20
2022-10-20T02:52:44.877Z,64.72
2022-10-20T02:55:14.434Z,60.65
2022-10-20T02:57:44.190Z,58.67
2022-10-20T03:00:15.323Z,55.53
2022-10-20T03:02:44.655Z,53.22
2022-10-20T03:05:14.279Z,57.38
2022-10-20T03:10:13.490Z,53.10
2022-10-20T03:12:43.444Z,51.78
2022-10-20T03:15:13.303Z,51.00
2022-10-20T03:17:43.187Z,51.75
2022-10-20T03:20:13.136Z,49.33
2022-10-20T03:22:42.989Z,47.40
2022-10-20T03:25:12.588Z,52.55
2022-10-20T03:27:41.784Z,51.40
2022-10-20T03:30:12.048Z,48.50
2022-10-20T03:32:41.467Z,51.58
2022-10-20T03:35:12.403Z,49.90
2022-10-20T03:37:41.774Z,48.35
2022-10-20T03:40:11.502Z,45.88
2022-10-20T03:42:41.560Z,48.33
2022-10-20T03:45:13.760Z,46.63
2022-10-20T03:47:46.073Z,48.35
2022-10-20T03:50:15.793Z,45.22
2022-10-20T03:52:44.972Z,46.38
2022-10-20T03:55:15.405Z,46.03
2022-10-20T03:57:44.795Z,46.70
2022-10-20T04:00:14.842Z,45.13
2022-10-20T04:02:47.630Z,47.00
2022-10-20T04:05:20.026Z,47.17
2022-10-20T04:07:51.096Z,45.88
2022-10-20T04:10:20.799Z,46.30
2022-10-20T04:12:49.988Z,44.40
2022-10-20T04:15:20.070Z,44.10
2022-10-20T04:17:50.608Z,44.10
2022-10-20T04:20:20.178Z,41.08
2022-10-20T04:22:49.671Z,42.13
2022-10-20T04:25:19.670Z,42.33
2022-10-20T04:27:49.350Z,42.83
2022-10-20T04:30:19.273Z,42.58
2022-10-20T04:32:49.114Z,48.45
2022-10-20T04:35:19.083Z,39.70
2022-10-20T04:37:48.540Z,42.92
2022-10-20T04:40:17.960Z,41.08
2022-10-20T04:42:47.767Z,40.45
2022-10-20T04:45:17.077Z,40.88
2022-10-20T04:47:46.962Z,38.13
2022-10-20T04:50:27.143Z,39.13
2022-10-20T04:53:11.385Z,36.65
2022-10-20T04:55:40.685Z,37.90
2022-10-20T04:58:09.724Z,37.95
2022-10-20T05:00:39.895Z,37.25
2022-10-20T05:03:08.984Z,35.33
2022-10-20T05:05:38.219Z,34.65
2022-10-20T05:08:07.199Z,35.40
2022-10-20T05:10:36.824Z,34.22
2022-10-20T05:13:05.827Z,34.45
2022-10-20T05:15:35.155Z,35.17
2022-10-20T05:18:07.265Z,34.95
2022-10-20T05:23:15.529Z,33.47
2022-10-20T05:25:44.530Z,34.58
2022-10-20T05:28:14.657Z,34.60
2022-10-20T05:30:43.941Z,36.03
2022-10-20T05:33:13.085Z,34.53
2022-10-20T05:35:41.923Z,35.13
2022-10-20T05:38:11.310Z,35.03
2022-10-20T05:40:40.729Z,34.55
2022-10-20T05:43:10.779Z,34.85
2022-10-20T05:45:40.568Z,35.42
2022-10-20T05:48:09.743Z,36.67
2022-10-20T05:50:39.645Z,36.70
2022-10-20T05:53:08.942Z,34.20
2022-10-20T05:55:37.955Z,35.85
2022-10-20T05:58:07.155Z,38.22
2022-10-20T06:00:42.987Z,36.63
2022-10-20T06:03:13.927Z,36.55
2022-10-20T06:05:46.657Z,35.80
2022-10-20T06:08:16.307Z,39.08
2022-10-20T06:10:45.627Z,37.08
2022-10-20T06:13:15.194Z,36.17
2022-10-20T06:15:44.616Z,34.42
2022-10-20T06:18:13.688Z,33.90
2022-10-20T06:20:43.370Z,34.95
2022-10-20T06:23:13.207Z,33.08
2022-10-20T06:25:44.815Z,33.80
2022-10-20T06:28:14.099Z,35.88
2022-10-20T06:30:43.324Z,36.00
2022-10-20T06:33:15.953Z,38.78
2022-10-20T06:35:45.299Z,39.00
2022-10-20T06:38:14.244Z,37.50
2022-10-20T06:40:43.473Z,38.63
2022-10-20T06:43:12.496Z,39.67
2022-10-20T06:45:41.709Z,42.22
2022-10-20T06:48:11.007Z,45.20
2022-10-20T06:50:40.277Z,39.95
2022-10-20T06:53:09.351Z,44.60
2022-10-20T06:55:38.867Z,47.28
2022-10-20T06:58:08.237Z,46.75
2022-10-20T07:00:37.617Z,43.53
2022-10-20T07:03:06.870Z,42.03
2022-10-20T07:05:37.102Z,43.45
2022-10-20T07:08:27.043Z,43.47
2022-10-20T07:11:07.858Z,45.88
2022-10-20T07:13:38.665Z,43.83
2022-10-20T07:16:09.828Z,45.13
2022-10-20T07:18:39.317Z,40.42
2022-10-20T07:21:19.763Z,41.83
2022-10-20T07:23:50.624Z,38.50
2022-10-20T07:26:25.884Z,41.30
2022-10-20T07:28:58.587Z,53.10
2022-10-20T07:31:33.110Z,50.40
2022-10-20T07:36:53.071Z,48.88
2022-10-20T07:39:24.315Z,48.47
2022-10-20T07:41:53.916Z,48.00
2022-10-20T07:44:25.705Z,47.78
2022-10-20T07:46:58.376Z,43.72
2022-10-20T07:49:45.560Z,40.45
2022-10-20T07:52:17.558Z,37.83
2022-10-20T07:54:47.973Z,38.47
2022-10-20T07:57:17.717Z,41.33
2022-10-20T07:59:47.018Z,39.45
2022-10-20T08:02:18.728Z,39.95
2022-10-20T08:04:48.365Z,34.10
2022-10-20T08:07:18.018Z,38.00
2022-10-20T08:09:48.412Z,41.03
2022-10-20T08:12:17.902Z,33.03
2022-10-20T08:15:01.710Z,33.40
2022-10-20T08:17:32.609Z,32.55
2022-10-20T08:20:26.414Z,34.47
2022-10-20T08:23:00.268Z,33.38
2022-10-20T08:25:30.234Z,33.63
2022-10-20T08:27:59.868Z,39.20
2022-10-20T08:30:29.239Z,35.03
2022-10-20T08:32:58.524Z,33.28
2022-10-20T08:35:28.249Z,27.85
2022-10-20T08:37:57.333Z,28.58
2022-10-20T08:40:34.234Z,28.90
2022-10-20T08:43:32.612Z,27.27
2022-10-20T08:46:37.583Z,27.10
2022-10-20T08:49:15.309Z,24.20
2022-10-20T08:51:44.616Z,25.02
2022-10-20T08:54:16.222Z,25.55
2022-10-20T08:56:46.208Z,23.40
2022-10-20T08:59:39.173Z,28.17
2022-10-20T09:05:02.968Z,27.48
2022-10-20T09:07:52.340Z,27.70
2022-10-20T09:10:39.602Z,28.00
2022-10-20T09:16:42.225Z,27.98
2022-10-20T09:22:34.893Z,23.50
2022-10-20T09:25:05.992Z,23.60
2022-10-20T09:30:30.447Z,21.15
2022-10-20T09:33:00.012Z,23.15
2022-10-20T09:35:37.765Z,26.13
2022-10-20T09:38:12.800Z,20.67
2022-10-20T09:40:56.530Z,21.60
2022-10-20T09:43:28.312Z,21.55
2022-10-20T09:46:06.230Z,19.10
2022-10-20T09:48:48.814Z,23.73
2022-10-20T09:51:25.831Z,19.25
2022-10-20T09:54:00.855Z,19.23
2022-10-20T09:56:41.918Z,18.00
2022-10-20T09:59:37.841Z,21.83
2022-10-20T10:02:16.187Z,23.05
2022-10-20T10:04:50.758Z,23.38
2022-10-20T10:07:29.450Z,20.00
2022-10-20T10:10:21.828Z,19.00
2022-10-20T10:13:13.558Z,19.85
2022-10-20T10:15:42.959Z,15.43
2022-10-20T10:18:24.515Z,13.35
2022-10-20T10:21:08.364Z,13.68
2022-10-20T10:26:55.153Z,11.65
2022-10-20T10:29:32.840Z,12.63
2022-10-20T10:32:05.042Z,12.23
2022-10-20T10:34:52.340Z,13.73
2022-10-20T10:39:51.294Z,18.13
2022-10-20T10:42:50.725Z,17.00
2022-10-20T10:45:40.910Z,18.20
2022-10-20T10:48:33.583Z,21.10
2022-10-20T10:51:12.072Z,23.52
2022-10-20T10:53:54.482Z,20.88
2022-10-20T10:56:45.241Z,18.88
2022-10-20T10:59:42.846Z,19.77
2022-10-20T11:02:49.416Z,18.45
2022-10-20T11:05:21.799Z,22.83
2022-10-20T11:10:44.537Z,25.83
2022-10-20T11:13:26.212Z,22.25
2022-10-20T11:19:09.291Z,41.55
2022-10-20T11:21:58.501Z,28.70
2022-10-20T11:24:37.569Z,54.08
2022-10-20T11:27:17.153Z,34.97
2022-10-20T11:30:09.194Z,28.67
2022-10-20T11:33:36.926Z,26.75
2022-10-20T11:36:34.341Z,32.15
2022-10-20T11:39:05.379Z,26.13
2022-10-20T11:41:50.198Z,32.55
2022-10-20T11:44:45.797Z,32.95
2022-10-20T11:47:22.686Z,32.45
2022-10-20T11:49:53.679Z,29.83
2022-10-20T11:53:02.931Z,29.90
2022-10-20T11:55:53.634Z,25.63
2022-10-20T11:58:44.643Z,28.23
2022-10-20T12:01:36.867Z,27.95
2022-10-20T12:04:27.546Z,31.42
2022-10-20T12:07:32.822Z,34.25
2022-10-20T12:10:23.222Z,29.95
2022-10-20T12:13:35.201Z,31.52
2022-10-20T12:16:23.201Z,26.00
2022-10-20T12:19:08.062Z,23.85
2022-10-20T12:22:05.712Z,17.80
2022-10-20T12:24:43.571Z,16.60
2022-10-20T12:27:13.058Z,15.43
2022-10-20T12:29:45.008Z,16.38
2022-10-20T12:32:37.766Z,18.05
2022-10-20T12:37:44.768Z,18.45
2022-10-20T12:40:16.224Z,17.10
2022-10-20T12:42:50.799Z,17.17
2022-10-20T12:45:19.942Z,17.55
2022-10-20T12:48:02.314Z,15.32
2022-10-20T12:50:50.428Z,14.15
2022-10-20T12:53:19.700Z,13.98
2022-10-20T12:56:20.011Z,15.90
2022-10-20T12:59:25.754Z,16.88
2022-10-20T13:02:14.903Z,16.25
2022-10-20T13:05:15.811Z,15.30
2022-10-20T13:07:48.011Z,14.57
2022-10-20T13:10:32.352Z,16.23
2022-10-20T13:13:04.409Z,15.13
2022-10-20T13:15:44.531Z,15.85
2022-10-20T13:18:14.001Z,13.60
2022-10-20T13:21:24.497Z,14.98
2022-10-20T13:24:23.546Z,14.23
2022-10-20T13:26:57.315Z,13.88
2022-10-20T13:29:41.625Z,11.63
2022-10-20T13:32:35.353Z,14.75
2022-10-20T13:35:24.198Z,11.50
2022-10-20T13:38:08.729Z,11.65
2022-10-20T13:40:51.777Z,10.95
2022-10-20T13:43:28.688Z,10.63
2022-10-20T13:46:29.164Z,8.70
2022-10-20T13:49:31.054Z,9.77
2022-10-20T13:52:08.342Z,8.38
2022-10-20T13:54:45.750Z,10.15
2022-10-20T13:57:34.351Z,8.82
2022-10-20T14:00:19.272Z,10.32
2022-10-20T14:03:07.712Z,11.07
2022-10-20T14:05:40.593Z,7.65
2022-10-20T14:08:12.084Z,9.57
2022-10-20T14:10:59.687Z,8.65
2022-10-20T14:13:35.652Z,8.45
2022-10-20T14:16:17.869Z,8.25
2022-10-20T14:19:06.299Z,7.80
2022-10-20T14:21:52.364Z,9.18
2022-10-20T14:24:34.541Z,8.48
2022-10-20T14:27:06.637Z,9.48
2022-10-20T14:29:40.841Z,10.38
2022-10-20T14:32:25.051Z,10.07
2022-10-20T14:35:00.774Z,10.82
2022-10-20T14:37:34.606Z,10.00
2022-10-20T14:40:19.254Z,10.70
2022-10-20T14:42:48.816Z,11.75
2022-10-20T14:45:27.094Z,10.80
2022-10-20T14:47:59.252Z,11.32
2022-10-20T14:50:42.049Z,11.40
2022-10-20T14:53:34.861Z,12.15
2022-10-20T14:58:58.363Z,14.13
2022-10-20T15:01:30.701Z,15.82
2022-10-20T15:04:27.583Z,15.50
2022-10-20T15:07:33.934Z,14.98
2022-10-20T15:10:15.281Z,15.50
2022-10-20T15:12:49.612Z,14.80
2022-10-20T15:15:21.571Z,15.43
2022-10-20T15:18:15.463Z,14.80
2022-10-20T15:20:48.938Z,14.73
2022-10-20T15:23:29.529Z,13.38
2022-10-20T15:26:15.654Z,13.77
2022-10-20T15:28:52.225Z,14.93
2022-10-20T15:31:26.929Z,13.55
2022-10-20T15:33:57.539Z,11.13
2022-10-20T15:36:41.762Z,10.43
2022-10-20T15:39:13.225Z,10.25
2022-10-20T15:41:42.877Z,9.27
2022-10-20T15:44:22.519Z,9.23
2022-10-20T15:46:56.766Z,10.02
2022-10-20T15:49:26.649Z,10.60
2022-10-20T15:51:55.752Z,9.18
2022-10-20T15:54:24.758Z,12.85
2022-10-20T15:56:53.997Z,11.57
2022-10-20T15:59:23.081Z,15.45
2022-10-20T16:01:52.791Z,15.95
2022-10-20T16:04:32.453Z,14.15
2022-10-20T16:07:03.338Z,14.98
2022-10-20T16:09:32.594Z,16.35
2022-10-20T16:12:01.469Z,16.48
2022-10-20T16:14:30.653Z,14.98
2022-10-20T16:17:02.663Z,13.57
2022-10-20T16:19:50.777Z,11.50
2022-10-20T16:22:19.946Z,9.80
2022-10-20T16:24:49.343Z,10.07
2022-10-20T16:27:18.504Z,11.80
2022-10-20T16:29:49.777Z,12.20
2022-10-20T16:32:19.646Z,15.50
2022-10-20T16:34:48.662Z,17.08
2022-10-20T16:37:17.967Z,17.17
2022-10-20T16:39:47.312Z,14.90
2022-10-20T16:42:16.591Z,13.27
2022-10-20T16:44:46.940Z,13.45
2022-10-20T16:47:16.225Z,11.88
2022-10-20T16:49:45.489Z,11.35
2022-10-20T16:52:14.611Z,10.18
2022-10-20T16:54:44.587Z,11.20
2022-10-20T16:57:14.107Z,11.82
2022-10-20T16:59:44.787Z,12.50
2022-10-20T17:02:14.089Z,11.95
2022-10-20T17:04:43.373Z,14.45
2022-10-20T17:07:13.077Z,13.63
2022-10-20T17:09:42.103Z,15.60
2022-10-20T17:12:11.545Z,15.63
2022-10-20T17:14:41.846Z,14.80
2022-10-20T17:17:11.071Z,13.77
2022-10-20T17:19:42.002Z,10.85
2022-10-20T17:24:45.688Z,11.75
2022-10-20T17:27:15.307Z,20.38
2022-10-20T17:29:44.253Z,10.57
2022-10-20T17:32:15.913Z,10.23
2022-10-20T17:34:47.949Z,10.57
2022-10-20T17:37:18.458Z,10.77
2022-10-20T17:39:48.083Z,11.15
2022-10-20T17:42:16.890Z,10.02
2022-10-20T17:44:46.153Z,10.50
2022-10-20T17:47:15.266Z,10.80
2022-10-20T17:49:44.278Z,11.50
2022-10-20T17:52:13.568Z,10.38
2022-10-20T17:54:42.597Z,9.93
2022-10-20T17:57:11.689Z,10.02
2022-10-20T17:59:52.398Z,9.88
2022-10-20T18:02:27.096Z,12.40
2022-10-20T18:04:56.156Z,13.27
2022-10-20T18:07:25.226Z,13.90
2022-10-20T18:09:55.150Z,14.45
2022-10-20T18:12:24.167Z,12.25
2022-10-20T18:14:53.795Z,10.57
2022-10-20T18:17:23.527Z,12.07
2022-10-20T18:19:53.532Z,13.18
2022-10-20T18:22:22.990Z,13.80
2022-10-20T18:24:51.783Z,13.63
2022-10-20T18:27:21.015Z,13.02
2022-10-20T18:29:49.920Z,15.35
2022-10-20T18:32:19.315Z,9.90
2022-10-20T18:34:48.761Z,8.75
2022-10-20T18:37:20.461Z,8.55
2022-10-20T18:39:49.414Z,7.45
2022-10-20T18:42:18.456Z,6.63
2022-10-20T18:44:47.918Z,7.30
2022-10-20T18:47:16.772Z,5.72
2022-10-20T18:49:45.837Z,5.60
2022-10-20T18:52:14.919Z,5.50
2022-10-20T18:54:44.062Z,6.07
2022-10-20T18:57:13.395Z,7.35
2022-10-20T18:59:42.626Z,6.30
2022-10-20T19:02:12.037Z,6.80
2022-10-20T19:04:41.239Z,7.55
2022-10-20T19:07:10.417Z,8.05
2022-10-20T19:09:39.335Z,9.93
2022-10-20T19:12:10.453Z,9.48
2022-10-20T19:14:39.765Z,7.72
2022-10-20T19:17:11.331Z,7.10
2022-10-20T19:19:42.608Z,7.20
2022-10-20T19:22:12.236Z,8.70
2022-10-20T19:24:41.634Z,6.55
2022-10-20T19:27:27.500Z,8.27
2022-10-20T19:29:56.935Z,10.95
2022-10-20T19:32:26.005Z,13.13
2022-10-20T19:34:55.325Z,18.48
2022-10-20T19:37:25.269Z,16.83
2022-10-20T19:39:55.031Z,16.25
2022-10-20T19:42:24.070Z,14.98
2022-10-20T19:44:53.346Z,11.40
2022-10-20T19:47:23.339Z,10.95
2022-10-20T19:49:52.251Z,14.00
2022-10-20T19:52:21.349Z,17.20
2022-10-20T19:54:50.626Z,15.68
2022-10-20T19:57:19.429Z,18.02
2022-10-20T19:59:48.657Z,17.00
2022-10-20T20:02:17.739Z,15.52
2022-10-20T20:04:46.618Z,15.88
2022-10-20T20:09:50.836Z,19.02
2022-10-20T20:12:20.959Z,16.83
2022-10-20T20:14:50.043Z,20.13
2022-10-20T20:17:19.878Z,17.45
2022-10-20T20:19:48.696Z,17.92
2022-10-20T20:22:17.997Z,17.70
2022-10-20T20:24:46.972Z,16.73
2022-10-20T20:27:16.015Z,16.45
2022-10-20T20:29:45.122Z,14.30
2022-10-20T20:32:14.430Z,13.10
2022-10-20T20:34:43.719Z,11.70
2022-10-20T20:37:12.628Z,11.98
2022-10-20T20:39:41.659Z,10.27
2022-10-20T20:42:10.491Z,10.30
2022-10-20T20:44:39.759Z,10.65
2022-10-20T20:47:08.742Z,10.40
2022-10-20T20:49:37.868Z,11.38
2022-10-20T20:52:06.905Z,9.95
2022-10-20T20:54:35.804Z,10.07
2022-10-20T20:57:05.121Z,10.27
2022-10-20T20:59:34.140Z,11.35
2022-10-20T21:02:02.873Z,13.75
2022-10-20T21:04:32.045Z,13.57
2022-10-20T21:07:02.520Z,15.25
2022-10-20T21:09:32.518Z,15.63
2022-10-20T21:12:02.191Z,13.48
2022-10-20T21:14:32.024Z,13.55
2022-10-20T21:17:02.134Z,13.05
2022-10-20T21:19:31.391Z,12.57
2022-10-20T21:22:02.419Z,15.02
2022-10-20T21:24:31.589Z,13.85
2022-10-20T21:27:01.092Z,14.57
2022-10-20T21:29:30.534Z,15.07
2022-10-20T21:31:59.500Z,16.50
2022-10-20T21:34:29.110Z,16.70
2022-10-20T21:36:58.262Z,18.05
2022-10-20T21:39:27.369Z,21.25
2022-10-20T21:41:56.480Z,21.38
2022-10-20T21:44:25.857Z,22.75
2022-10-20T21:46:54.736Z,20.67
2022-10-20T21:49:28.063Z,20.63
2022-10-20T21:51:58.676Z,21.02
2022-10-20T21:54:30.219Z,21.45
2022-10-20T21:56:59.496Z,16.88
2022-10-20T21:59:31.175Z,14.55
2022-10-20T22:02:02.288Z,13.05
2022-10-20T22:04:32.479Z,13.70
2022-10-20T22:07:01.499Z,15.00
2022-10-20T22:09:31.350Z,16.45
2022-10-20T22:12:01.249Z,20.27
2022-10-20T22:14:31.443Z,21.48
2022-10-20T22:17:01.066Z,22.92
2022-10-20T22:19:31.360Z,30.85
2022-10-20T22:22:00.676Z,33.53
2022-10-20T22:24:31.614Z,33.67
2022-10-20T22:27:00.538Z,36.05
2022-10-20T22:29:29.905Z,40.58
2022-10-20T22:31:58.791Z,38.47
2022-10-20T22:34:27.840Z,36.92
2022-10-20T22:36:57.270Z,36.50
2022-10-20T22:39:26.521Z,37.88
2022-10-20T22:41:55.467Z,39.92
2022-10-20T22:44:24.545Z,35.95
2022-10-20T22:46:53.900Z,36.80
2022-10-20T22:49:22.901Z,32.47
2022-10-20T22:51:51.946Z,31.38
2022-10-20T22:54:20.717Z,31.73
2022-10-20T22:56:53.790Z,27.00
2022-10-20T22:59:22.827Z,26.15
2022-10-20T23:01:53.124Z,25.20
2022-10-20T23:04:22.369Z,23.38
2022-10-20T23:06:51.973Z,22.15
2022-10-20T23:09:21.351Z,23.40
2022-10-20T23:11:50.443Z,22.50
2022-10-20T23:14:19.551Z,20.33
2022-10-20T23:16:48.963Z,21.17
2022-10-20T23:19:18.106Z,21.45
2022-10-20T23:21:47.104Z,20.75
2022-10-20T23:24:16.191Z,21.77
2022-10-20T23:26:45.648Z,20.02
2022-10-20T23:29:14.671Z,17.77
2022-10-20T23:31:43.644Z,18.63
2022-10-20T23:34:13.369Z,19.33
2022-10-20T23:36:42.493Z,18.52
2022-10-20T23:39:11.469Z,20.10
2022-10-20T23:41:40.841Z,19.75
2022-10-20T23:44:10.246Z,18.98
2022-10-20T23:46:39.401Z,18.40
2022-10-20T23:49:08.532Z,16.73
2022-10-20T23:51:37.708Z,17.58
2022-10-20T23:54:06.755Z,18.77
2022-10-20T23:56:35.934Z,17.85
2022-10-20T23:59:04.887Z,20.27
